Time;durP1;ratioP1;P1;durP2;ratioP2;P2;SDS_P1;SDS_P2;PMS_P1;PMS_P2;Temp;Humidity;BMP_temperature;BMP_pressure;BME280_temperature;BME280_humidity;BME280_pressure;Samples;Min_cycle;Max_cycle;Signal;HPM_P1;HPM_P2
2021/11/06 00:01:11;;;;;;;428.95;384.55;;;12.50;71.70;;;11.56;100.00;101492.84;4971122;28;20487;-64
2021/11/06 00:03:39;;;;;;;428.25;383.77;;;12.40;71.80;;;11.53;100.00;101493.41;4971084;28;20432;-68
2021/11/06 00:06:07;;;;;;;427.13;382.92;;;12.40;72.00;;;11.55;100.00;101493.94;4971235;28;20886;-71
2021/11/06 00:08:35;;;;;;;429.92;385.63;;;12.40;72.00;;;11.49;100.00;101482.31;4970546;28;20783;-69
2021/11/06 00:11:05;;;;;;;432.52;388.17;;;12.30;72.10;;;11.50;100.00;101481.25;4974980;28;20494;-68
2021/11/06 00:13:33;;;;;;;425.52;381.23;;;12.30;71.90;;;11.46;100.00;101471.22;4974997;28;20420;-68
2021/11/06 00:16:03;;;;;;;426.00;381.77;;;12.30;72.00;;;11.45;100.00;101475.03;4975182;28;20427;-66
2021/11/06 00:18:31;;;;;;;436.85;392.33;;;12.30;72.20;;;11.47;100.00;101467.44;4974579;28;20427;-66
2021/11/06 00:20:59;;;;;;;428.45;384.13;;;12.30;72.00;;;11.46;100.00;101461.22;4974723;28;20449;-70
2021/11/06 00:23:27;;;;;;;429.38;384.98;;;12.30;71.90;;;11.41;100.00;101461.25;4974701;28;20420;-66
2021/11/06 00:25:55;;;;;;;420.27;376.05;;;12.20;71.60;;;11.43;100.00;101460.94;4974817;28;20427;-70
2021/11/06 00:28:23;;;;;;;432.98;388.52;;;12.20;71.50;;;11.40;100.00;101461.50;4974692;28;20428;-64
2021/11/06 00:30:51;;;;;;;436.23;391.67;;;12.20;71.70;;;11.34;100.00;101451.78;4974211;28;20474;-67
2021/11/06 00:33:21;;;;;;;426.25;382.23;;;12.10;71.80;;;11.34;100.00;101455.31;4974711;28;20435;-68
2021/11/06 00:35:52;;;;;;;434.40;390.02;;;12.10;71.90;;;11.34;100.00;101449.91;4974551;28;20423;-67
2021/11/06 00:38:20;;;;;;;433.48;389.10;;;12.10;71.90;;;11.37;100.00;101443.13;4974400;28;20420;-66
2021/11/06 00:40:48;;;;;;;426.10;381.80;;;12.10;71.80;;;11.29;100.00;101449.94;4974005;28;20922;-66
2021/11/06 00:43:16;;;;;;;434.30;389.92;;;12.00;71.70;;;11.32;100.00;101443.16;4974340;28;20420;-65
2021/11/06 00:45:45;;;;;;;423.77;379.75;;;12.00;71.70;;;11.32;100.00;101446.69;4974366;28;20420;-69
2021/11/06 00:48:13;;;;;;;428.63;384.25;;;12.00;71.90;;;11.18;100.00;101453.00;4974506;28;20428;-66
2021/11/06 00:50:43;;;;;;;419.23;375.00;;;11.90;72.10;;;11.03;100.00;101447.66;4973689;28;20420;-68
2021/11/06 00:53:11;;;;;;;429.08;384.48;;;11.90;72.40;;;11.03;100.00;101444.94;4974467;28;20419;-64
2021/11/06 00:55:39;;;;;;;404.20;360.43;;;11.80;72.60;;;10.93;100.00;101440.38;4974190;28;20427;-68
2021/11/06 00:58:07;;;;;;;418.55;374.40;;;11.70;72.80;;;10.90;100.00;101440.94;4974072;28;20829;-69
2021/11/06 01:00:35;;;;;;;409.58;365.48;;;11.70;72.70;;;10.87;100.00;101445.00;4973392;28;20432;-65
2021/11/06 01:03:03;;;;;;;402.70;358.83;;;11.70;72.80;;;10.82;100.00;101438.81;4974035;28;20435;-67
2021/11/06 01:05:31;;;;;;;398.52;354.80;;;11.70;72.80;;;10.80;100.00;101436.34;4974315;28;20883;-64
2021/11/06 01:08:01;;;;;;;398.97;355.33;;;11.60;72.80;;;10.86;100.00;101440.66;4974052;28;20893;-65
2021/11/06 01:10:29;;;;;;;404.33;360.35;;;11.70;72.80;;;10.87;100.00;101441.47;4973252;28;20863;-64
2021/11/06 01:12:57;;;;;;;394.83;351.40;;;11.70;72.80;;;10.86;100.00;101448.78;4973757;28;20948;-65
2021/11/06 01:15:28;;;;;;;396.05;352.45;;;11.70;72.80;;;10.86;100.00;101446.06;4973839;28;20443;-68
2021/11/06 01:17:56;;;;;;;396.43;352.67;;;11.70;72.80;;;10.86;100.00;101446.06;4973774;28;20416;-65
2021/11/06 01:20:24;;;;;;;399.98;356.33;;;11.70;72.80;;;10.96;100.00;101446.03;4972690;28;20490;-64
2021/11/06 01:22:53;;;;;;;400.35;356.45;;;11.70;72.60;;;10.87;100.00;101442.28;4973675;28;20434;-69
2021/11/06 01:25:23;;;;;;;404.48;360.45;;;11.70;72.70;;;10.86;100.00;101435.25;4973656;28;20494;-67
2021/11/06 01:27:51;;;;;;;393.83;350.30;;;11.70;72.70;;;10.88;100.00;101435.78;4973781;28;20482;-70
2021/11/06 01:30:19;;;;;;;399.40;355.83;;;11.70;72.50;;;10.96;100.00;101437.94;4972651;28;20479;-66
2021/11/06 01:32:49;;;;;;;400.95;357.23;;;11.70;72.30;;;10.88;100.00;101437.69;4973723;28;20427;-66
2021/11/06 01:35:19;;;;;;;400.27;356.55;;;11.70;72.50;;;10.83;100.00;101430.41;4973681;28;20767;-70
2021/11/06 01:37:48;;;;;;;391.63;345.23;;;11.70;72.60;;;10.80;100.00;101430.94;4973454;28;20851;-66
2021/11/06 01:40:21;;;;;;;402.10;358.17;;;11.70;72.70;;;10.85;100.00;101439.03;4972430;28;20430;-67
2021/11/06 01:42:50;;;;;;;395.85;352.38;;;11.60;72.60;;;10.85;100.00;101444.44;4973510;28;20428;-68
2021/11/06 01:45:21;;;;;;;398.45;354.65;;;11.70;72.60;;;10.81;100.00;101448.81;4973577;28;20772;-67
2021/11/06 01:47:50;;;;;;;393.33;349.83;;;11.60;72.50;;;10.84;100.00;101447.44;4973207;28;20416;-69
2021/11/06 01:50:19;;;;;;;391.90;348.50;;;11.60;72.60;;;10.75;100.00;101449.91;4972376;28;20424;-68
2021/11/06 01:52:51;;;;;;;395.27;351.65;;;11.60;72.70;;;10.79;100.00;101452.88;4973253;28;20481;-64
2021/11/06 01:55:21;;;;;;;389.70;343.45;;;11.60;72.70;;;10.78;100.00;101453.94;4973222;28;20420;-70
2021/11/06 01:57:50;;;;;;;399.60;355.95;;;11.60;72.70;;;10.79;100.00;101452.88;4973382;28;20912;-65
2021/11/06 02:00:22;;;;;;;401.25;357.55;;;11.60;72.70;;;10.78;100.00;101448.53;4971954;28;20423;-68
2021/11/06 02:02:51;;;;;;;404.55;360.70;;;11.50;72.60;;;10.73;100.00;101452.06;4973008;28;20958;-65
2021/11/06 02:05:19;;;;;;;402.77;359.17;;;11.40;72.80;;;10.69;100.00;101458.31;4972970;28;20432;-67
2021/11/06 02:07:48;;;;;;;393.27;349.85;;;11.30;73.10;;;10.62;100.00;101457.78;4973023;28;20432;-67
2021/11/06 02:10:16;;;;;;;396.83;353.30;;;11.30;73.40;;;10.58;100.00;101460.22;4972049;28;20428;-65
2021/11/06 02:12:49;;;;;;;391.23;346.08;;;11.30;73.60;;;10.48;100.00;101460.25;4972815;28;20427;-68
2021/11/06 02:15:20;;;;;;;392.05;344.42;;;11.20;74.10;;;10.45;100.00;101460.00;4972736;28;20789;-69
2021/11/06 02:17:49;;;;;;;390.70;341.20;;;11.20;74.30;;;10.41;100.00;101457.00;4972780;28;20413;-69
2021/11/06 02:20:19;;;;;;;391.15;342.38;;;11.10;74.50;;;10.37;100.00;101455.94;4971949;28;20887;-67
2021/11/06 02:22:48;;;;;;;391.42;345.77;;;11.10;74.60;;;10.37;100.00;101450.53;4972663;28;20416;-67
2021/11/06 02:25:17;;;;;;;389.80;334.23;;;11.10;74.60;;;10.32;100.00;101453.25;4972628;28;21019;-66
2021/11/06 02:27:47;;;;;;;390.07;335.93;;;11.00;74.70;;;10.27;100.00;101453.25;4972434;28;20527;-69
2021/11/06 02:30:17;;;;;;;388.45;332.83;;;11.00;74.80;;;10.21;100.00;101451.66;4971644;28;20949;-70
2021/11/06 02:32:47;;;;;;;387.15;329.88;;;11.00;75.00;;;10.24;100.00;101451.88;4972014;28;20420;-68
2021/11/06 02:35:16;;;;;;;389.38;331.45;;;10.90;74.90;;;10.21;100.00;101457.06;4972643;28;20432;-70
2021/11/06 02:37:48;;;;;;;387.48;331.40;;;10.90;75.20;;;10.11;100.00;101447.03;4972312;28;20424;-66
2021/11/06 02:40:17;;;;;;;386.00;319.25;;;10.80;75.20;;;10.12;100.00;101453.25;4971503;28;20478;-66
2021/11/06 02:42:45;;;;;;;388.95;334.90;;;10.90;75.40;;;10.09;100.00;101446.47;4971884;28;20451;-64
2021/11/06 02:45:13;;;;;;;386.63;326.85;;;10.90;75.50;;;10.13;100.00;101446.72;4972427;28;20419;-66
2021/11/06 02:47:42;;;;;;;386.40;318.40;;;10.90;75.40;;;10.06;100.00;101446.22;4972271;28;20430;-68
2021/11/06 02:50:11;;;;;;;384.83;313.13;;;10.90;75.40;;;10.00;100.00;101448.09;4971460;28;20815;-72
2021/11/06 02:52:42;;;;;;;384.58;311.17;;;10.80;75.40;;;9.87;100.00;101460.28;4971817;28;20447;-72
2021/11/06 02:55:11;;;;;;;385.63;306.33;;;10.70;75.60;;;9.81;100.00;101453.25;4972249;28;20455;-67
2021/11/06 02:57:40;;;;;;;383.20;308.00;;;10.70;76.60;;;9.72;100.00;101446.75;4972083;28;20903;-69
2021/11/06 03:00:11;;;;;;;386.52;312.75;;;10.60;76.10;;;9.70;100.00;101450.78;4971379;28;20472;-70
2021/11/06 03:02:39;;;;;;;381.42;298.95;;;10.50;76.20;;;9.67;100.00;101449.41;4971808;28;20907;-70
2021/11/06 03:05:10;;;;;;;381.58;301.85;;;10.50;76.50;;;9.73;100.00;101456.44;4972052;28;20482;-69
2021/11/06 03:07:39;;;;;;;379.77;296.23;;;10.50;76.60;;;9.79;100.00;101449.97;4971833;28;20479;-67
2021/11/06 03:10:11;;;;;;;383.25;310.60;;;10.50;76.60;;;9.82;100.00;101451.31;4970944;28;20416;-65
2021/11/06 03:12:40;;;;;;;382.00;298.83;;;10.60;76.60;;;9.86;100.00;101455.13;4971848;28;21044;-65
2021/11/06 03:15:09;;;;;;;385.30;319.52;;;10.50;76.40;;;9.85;100.00;101454.31;4971750;28;20422;-66
2021/11/06 03:17:38;;;;;;;383.65;308.60;;;10.50;76.40;;;9.80;100.00;101459.72;4971672;28;20906;-65
2021/11/06 03:20:09;;;;;;;384.70;314.25;;;10.60;76.60;;;9.78;100.00;101459.19;4970837;28;20423;-69
2021/11/06 03:22:37;;;;;;;382.00;305.55;;;10.60;76.60;;;9.80;100.00;101465.13;4971430;28;20463;-67
2021/11/06 03:25:07;;;;;;;382.35;312.88;;;10.50;76.50;;;9.82;100.00;101451.31;4971619;28;20435;-69
2021/11/06 03:27:36;;;;;;;384.23;313.03;;;10.60;76.50;;;9.81;100.00;101458.66;4971620;28;20444;-72
2021/11/06 03:30:08;;;;;;;385.05;316.45;;;10.60;76.50;;;9.77;100.00;101462.94;4970784;28;20442;-69
2021/11/06 03:32:37;;;;;;;385.08;304.42;;;10.50;76.40;;;9.76;100.00;101464.00;4971507;28;20423;-67
2021/11/06 03:35:07;;;;;;;380.48;303.48;;;10.60;76.40;;;9.76;100.00;101474.00;4971329;28;20428;-69
2021/11/06 03:37:36;;;;;;;379.17;299.57;;;10.50;76.40;;;9.72;100.00;101473.75;4971528;28;20424;-70
2021/11/06 03:40:07;;;;;;;379.77;296.38;;;10.50;77.30;;;9.70;100.00;101475.06;4970637;28;20415;-69
2021/11/06 03:42:38;;;;;;;383.33;307.33;;;10.50;76.60;;;9.67;100.00;101471.03;4971211;28;20447;-66
2021/11/06 03:45:07;;;;;;;383.55;304.58;;;10.40;76.60;;;9.72;100.00;101467.53;4970664;28;20448;-66
2021/11/06 03:47:35;;;;;;;380.25;298.02;;;10.40;76.50;;;9.62;100.00;101472.91;4971261;28;20890;-66
2021/11/06 03:50:05;;;;;;;381.05;299.58;;;10.40;76.70;;;9.60;100.00;101475.91;4970626;28;20443;-66
2021/11/06 03:52:33;;;;;;;378.90;288.88;;;10.40;76.80;;;9.47;100.00;101475.56;4971241;28;20420;-70
2021/11/06 03:55:01;;;;;;;381.10;292.83;;;10.30;77.00;;;9.37;100.00;101465.56;4970984;28;20459;-69
2021/11/06 03:57:29;;;;;;;377.63;277.23;;;10.30;77.20;;;9.34;100.00;101468.78;4971433;28;20424;-67
2021/11/06 03:59:59;;;;;;;377.20;280.20;;;10.20;77.30;;;9.31;100.00;101480.13;4970422;28;20427;-70
2021/11/06 04:02:27;;;;;;;377.13;277.50;;;10.20;77.50;;;9.27;100.00;101477.13;4971178;28;20831;-69
2021/11/06 04:04:55;;;;;;;378.83;281.33;;;10.20;77.50;;;9.26;100.00;101478.22;4970966;28;20427;-68
2021/11/06 04:07:24;;;;;;;375.10;272.42;;;10.10;77.50;;;9.16;100.00;101478.19;4971074;28;20419;-63
2021/11/06 04:09:52;;;;;;;374.80;265.58;;;10.00;78.30;;;9.09;100.00;101474.13;4969934;28;20416;-65
2021/11/06 04:12:21;;;;;;;374.63;260.63;;;10.00;78.00;;;9.08;100.00;101477.88;4970927;28;20416;-69
2021/11/06 04:14:49;;;;;;;372.42;259.63;;;10.00;78.10;;;9.03;100.00;101475.97;4971114;28;20891;-67
2021/11/06 04:17:19;;;;;;;374.83;254.23;;;9.90;79.20;;;8.97;100.00;101484.28;4971055;28;20420;-66
2021/11/06 04:19:47;;;;;;;375.58;262.13;;;9.80;79.20;;;8.92;100.00;101478.88;4970124;28;20416;-68
2021/11/06 04:22:16;;;;;;;373.30;254.23;;;9.80;79.50;;;8.93;100.00;101475.13;4970707;28;20435;-70
2021/11/06 04:24:44;;;;;;;376.65;258.67;;;9.80;79.60;;;8.90;100.00;101481.84;4970923;28;20415;-71
2021/11/06 04:27:12;;;;;;;373.23;256.08;;;9.80;79.50;;;8.88;100.00;101475.91;4971025;28;20480;-65
2021/11/06 04:29:40;;;;;;;376.33;259.77;;;9.70;79.60;;;8.88;100.00;101478.59;4970313;28;20657;-68
2021/11/06 04:32:09;;;;;;;374.10;258.98;;;9.70;79.70;;;8.90;100.00;101475.66;4970956;28;20486;-67
2021/11/06 04:34:39;;;;;;;372.27;252.52;;;9.70;79.60;;;8.86;100.00;101480.75;4970862;28;20428;-64
2021/11/06 04:37:07;;;;;;;373.05;247.38;;;9.70;79.40;;;8.85;100.00;101478.28;4970724;28;20489;-73
2021/11/06 04:39:35;;;;;;;369.35;244.50;;;9.70;79.50;;;8.79;100.00;101477.47;4969991;28;20419;-71
2021/11/06 04:42:05;;;;;;;372.77;253.07;;;9.70;79.50;;;8.86;100.00;101479.94;4970803;28;20924;-64
2021/11/06 04:44:34;;;;;;;372.60;258.85;;;9.70;79.30;;;8.89;100.00;101468.63;4970916;28;20419;-69
2021/11/06 04:47:02;;;;;;;373.40;263.15;;;9.70;79.20;;;8.93;100.00;101475.94;4970610;28;20907;-64
2021/11/06 04:49:30;;;;;;;373.27;256.98;;;9.70;79.10;;;8.96;100.00;101474.59;4969906;28;20883;-72
2021/11/06 04:51:59;;;;;;;376.30;267.30;;;9.80;78.80;;;8.93;100.00;101467.84;4970631;28;20851;-68
2021/11/06 04:54:28;;;;;;;374.30;263.10;;;9.80;78.70;;;8.89;100.00;101476.72;4970779;28;20423;-66
2021/11/06 04:56:56;;;;;;;373.08;256.83;;;9.70;78.50;;;8.88;100.00;101473.19;4974509;28;20443;-69
2021/11/06 04:59:25;;;;;;;371.98;256.65;;;9.70;79.50;;;8.88;100.00;101475.06;4973248;28;20890;-67
2021/11/06 05:01:53;;;;;;;374.48;264.08;;;9.70;78.80;;;8.85;100.00;101465.63;4974017;28;20436;-68
2021/11/06 05:04:22;;;;;;;373.27;256.40;;;9.70;78.70;;;8.82;100.00;101474.25;4974012;28;20491;-68
2021/11/06 05:06:50;;;;;;;372.83;256.00;;;9.70;78.60;;;8.77;100.00;101480.44;4974033;28;20897;-70
2021/11/06 05:09:21;;;;;;;374.67;256.30;;;9.60;78.40;;;8.62;100.00;101474.16;4972928;28;20934;-69
2021/11/06 05:11:50;;;;;;;371.42;251.07;;;9.50;78.70;;;8.54;100.00;101471.94;4973772;28;20420;-68
2021/11/06 05:14:18;;;;;;;378.05;259.55;;;9.40;79.00;;;8.46;100.00;101475.13;4973669;28;20424;-65
2021/11/06 05:16:46;;;;;;;375.63;247.82;;;9.30;78.80;;;8.34;100.00;101486.09;4972398;28;20416;-64
2021/11/06 05:19:14;;;;;;;371.73;240.43;;;9.20;78.80;;;8.21;100.00;101473.00;4971629;28;20420;-69
2021/11/06 05:21:43;;;;;;;369.33;232.13;;;9.10;79.30;;;8.23;100.00;101474.41;4972611;28;20435;-67
2021/11/06 05:24:12;;;;;;;372.73;235.63;;;9.10;79.50;;;8.34;100.00;101485.25;4972053;28;20432;-65
2021/11/06 05:26:48;;;;;;;372.50;244.88;;;9.20;79.60;;;8.48;100.00;101476.47;4973157;28;20420;-68
2021/11/06 05:29:18;;;;;;;373.63;248.27;;;9.30;79.50;;;8.58;100.00;101475.72;4971895;28;20420;-68
2021/11/06 05:31:46;;;;;;;371.30;240.07;;;9.40;79.10;;;8.63;100.00;101467.69;4972928;28;20423;-65
2021/11/06 05:34:14;;;;;;;374.33;247.53;;;9.40;78.80;;;8.61;100.00;101486.81;4978912;28;20422;-70
2021/11/06 05:36:43;;;;;;;377.33;258.05;;;9.40;78.60;;;8.57;100.00;101479.50;4990411;28;20425;-66
2021/11/06 05:39:11;;;;;;;375.55;253.50;;;9.40;78.70;;;8.60;100.00;101474.38;4991552;28;20550;-67
2021/11/06 05:41:40;;;;;;;378.17;264.80;;;9.40;78.70;;;8.59;100.00;101480.06;4992428;28;20399;-70
2021/11/06 05:44:08;;;;;;;373.85;248.10;;;9.40;78.40;;;8.66;100.00;101475.25;4992678;28;20472;-69
2021/11/06 05:46:36;;;;;;;373.57;250.83;;;9.50;78.50;;;8.74;100.00;101475.56;4992746;28;20418;-67
2021/11/06 05:49:05;;;;;;;373.42;251.52;;;9.50;78.30;;;8.82;100.00;101470.72;4991950;28;20422;-67
2021/11/06 05:51:33;;;;;;;375.88;267.05;;;9.60;77.90;;;8.89;100.00;101474.81;4992426;28;20880;-70
2021/11/06 05:54:01;;;;;;;377.53;272.67;;;9.60;77.60;;;8.88;100.00;101469.69;4992348;28;20422;-70
2021/11/06 05:56:31;;;;;;;378.00;269.45;;;9.60;77.50;;;8.89;100.00;101476.72;4992522;28;20481;-66
2021/11/06 05:59:01;;;;;;;380.20;276.95;;;9.70;77.40;;;8.88;100.00;101477.78;4991571;28;20753;-67
2021/11/06 06:01:30;;;;;;;374.45;266.85;;;9.60;77.30;;;8.89;100.00;101468.63;4992329;28;20426;-67
2021/11/06 06:03:58;;;;;;;376.53;270.57;;;9.70;77.40;;;8.79;100.00;101472.88;4992080;28;20828;-65
2021/11/06 06:06:26;;;;;;;376.52;260.65;;;9.60;77.60;;;8.64;100.00;101462.03;4991305;28;20477;-68
2021/11/06 06:08:54;;;;;;;378.48;267.98;;;9.50;77.40;;;8.62;100.00;101463.34;4991383;28;20434;-66
2021/11/06 06:11:22;;;;;;;374.35;254.75;;;9.50;77.50;;;8.69;100.00;101464.72;4992294;28;20421;-69
2021/11/06 06:13:50;;;;;;;371.70;249.00;;;9.50;77.70;;;8.84;100.00;101468.59;4992164;28;20480;-68
2021/11/06 06:16:20;;;;;;;377.50;268.45;;;9.60;77.60;;;8.98;100.00;101461.66;4992050;28;20496;-68
2021/11/06 06:18:48;;;;;;;376.35;267.35;;;9.70;77.50;;;9.08;100.00;101462.50;4991314;28;20516;-66
2021/11/06 06:21:16;;;;;;;378.67;273.50;;;9.80;77.00;;;9.16;100.00;101472.78;4991787;28;20485;-68
2021/11/06 06:23:45;;;;;;;379.38;280.95;;;9.90;76.70;;;9.23;100.00;101467.97;4991835;28;20442;-65
2021/11/06 06:26:14;;;;;;;379.98;287.83;;;9.90;76.30;;;9.24;100.00;101477.66;4991912;28;20431;-68
2021/11/06 06:28:43;;;;;;;378.10;279.05;;;10.00;75.00;;;9.19;100.00;101471.44;4991135;28;20437;-65
2021/11/06 06:31:11;;;;;;;379.42;281.95;;;10.00;74.80;;;9.26;100.00;101475.53;4991748;28;20960;-67
2021/11/06 06:33:41;;;;;;;379.17;283.42;;;10.00;74.60;;;9.26;100.00;101480.13;4991708;28;20418;-65
2021/11/06 06:36:11;;;;;;;381.13;286.25;;;10.00;74.50;;;9.30;100.00;101476.59;4991542;28;20414;-65
2021/11/06 06:38:40;;;;;;;378.52;281.42;;;10.00;74.30;;;9.31;100.00;101478.25;4990992;28;20480;-67
2021/11/06 06:41:08;;;;;;;377.33;285.58;;;10.00;74.20;;;9.33;100.00;101481.47;4991744;28;20521;-63
2021/11/06 06:43:41;;;;;;;379.13;289.88;;;10.10;74.20;;;9.40;100.00;101483.94;4991105;28;20434;-68
2021/11/06 06:46:09;;;;;;;380.23;291.10;;;10.10;74.10;;;9.39;100.00;101484.22;4991459;28;20429;-66
2021/11/06 06:48:39;;;;;;;378.95;283.33;;;10.10;74.10;;;9.38;100.00;101485.28;4990570;28;20763;-67
2021/11/06 06:51:08;;;;;;;379.08;285.73;;;10.10;74.00;;;9.36;100.00;101492.84;4991376;28;20472;-70
2021/11/06 06:53:36;;;;;;;378.35;288.75;;;10.10;74.00;;;9.37;100.00;101494.44;4991245;28;20422;-68
2021/11/06 06:56:04;;;;;;;380.40;287.27;;;10.10;74.10;;;9.32;100.00;101501.47;4988388;28;20419;-68
2021/11/06 06:58:33;;;;;;;382.97;290.80;;;10.00;74.00;;;9.24;100.00;101501.94;4990473;28;20426;-67
2021/11/06 07:01:01;;;;;;;378.30;282.88;;;10.00;74.30;;;9.29;100.00;101507.38;4990516;28;20419;-66
2021/11/06 07:03:29;;;;;;;377.98;285.40;;;10.00;74.50;;;9.33;100.00;101513.06;4991256;28;20492;-69
2021/11/06 07:05:59;;;;;;;379.85;283.95;;;10.00;74.60;;;9.29;100.00;101511.97;4991273;28;20480;-66
2021/11/06 07:08:27;;;;;;;377.00;283.00;;;10.00;74.50;;;9.26;100.00;101510.63;4986595;28;20993;-69
2021/11/06 07:10:55;;;;;;;376.40;280.55;;;10.00;74.70;;;9.39;100.00;101517.41;4982628;28;20466;-64
2021/11/06 07:13:24;;;;;;;378.00;287.23;;;10.10;75.00;;;9.43;100.00;101510.38;4990466;28;20414;-70
2021/11/06 07:15:53;;;;;;;380.13;292.75;;;10.10;74.80;;;9.42;100.00;101508.78;4990824;28;20414;-69
2021/11/06 07:18:21;;;;;;;382.33;300.10;;;10.10;74.80;;;9.42;100.00;101511.50;4990237;28;20453;-64
2021/11/06 07:20:49;;;;;;;383.30;292.80;;;10.20;74.90;;;9.42;100.00;101516.06;4990090;28;20418;-66
2021/11/06 07:23:19;;;;;;;380.15;293.00;;;10.20;74.90;;;9.59;100.00;101522.88;4990478;28;20971;-67
2021/11/06 07:25:47;;;;;;;384.25;305.00;;;10.30;74.80;;;9.86;100.00;101519.94;4990487;28;20824;-68
2021/11/06 07:28:15;;;;;;;393.48;317.38;;;10.50;74.50;;;10.13;100.00;101525.94;4990315;28;20836;-67
2021/11/06 07:30:43;;;;;;;388.88;325.17;;;10.90;74.50;;;10.38;100.00;101525.97;4989663;28;20426;-67
2021/11/06 07:33:11;;;;;;;392.75;340.27;;;11.10;72.70;;;10.67;100.00;101523.47;4990650;28;20414;-65
2021/11/06 07:35:39;;;;;;;398.40;354.40;;;11.40;71.70;;;10.84;100.00;101534.03;4990394;28;20445;-68
2021/11/06 07:38:08;;;;;;;413.88;369.42;;;11.60;71.00;;;11.06;100.00;101539.09;4990318;28;20441;-68
2021/11/06 07:40:37;;;;;;;415.65;371.33;;;11.80;70.40;;;11.30;100.00;101529.28;4989429;28;20513;-66
2021/11/06 07:43:05;;;;;;;434.92;389.95;;;12.00;69.40;;;11.45;100.00;101529.22;4990127;28;20500;-68
2021/11/06 07:45:34;;;;;;;442.25;396.98;;;12.20;68.90;;;11.55;100.00;101534.56;4990104;28;20508;-69
2021/11/06 07:48:02;;;;;;;460.30;414.90;;;12.40;68.60;;;11.77;100.00;101543.16;4990196;28;20422;-65
2021/11/06 07:50:31;;;;;;;466.00;420.70;;;12.60;67.70;;;11.81;100.00;101548.81;4989166;28;20421;-71
2021/11/06 07:52:59;;;;;;;479.80;434.15;;;12.50;67.30;;;11.81;100.00;101548.81;4990115;28;20509;-67
2021/11/06 07:55:27;;;;;;;476.70;431.20;;;12.50;67.40;;;11.89;100.00;101545.50;4990317;28;20451;-64
2021/11/06 07:57:57;;;;;;;483.58;437.98;;;12.60;67.30;;;11.86;100.00;101541.47;4990293;28;20766;-70
2021/11/06 08:00:40;;;;;;;479.35;433.95;;;12.60;67.50;;;11.82;100.00;101553.97;4988680;28;20427;-65
2021/11/06 08:03:20;;;;;;;476.48;430.98;;;12.60;67.60;;;11.70;100.00;101553.50;4988867;28;20801;-67
2021/11/06 08:05:55;;;;;;;467.08;421.80;;;12.40;67.60;;;11.64;100.00;101553.78;4989760;28;20759;-65
2021/11/06 08:08:25;;;;;;;473.63;428.42;;;12.30;68.10;;;11.59;100.00;101559.19;4989356;28;20418;-69
2021/11/06 08:10:53;;;;;;;445.13;400.15;;;12.10;68.30;;;11.51;100.00;101560.59;4989041;28;20415;-65
2021/11/06 08:13:25;;;;;;;436.58;391.98;;;12.10;69.00;;;11.57;100.00;101573.03;4988695;28;20492;-68
2021/11/06 08:15:53;;;;;;;435.55;390.75;;;12.20;69.10;;;11.65;100.00;101569.72;4989691;28;20425;-67
2021/11/06 08:18:26;;;;;;;442.27;397.48;;;12.30;69.00;;;11.69;100.00;101557.25;4989543;28;20517;-66
2021/11/06 08:20:57;;;;;;;445.45;400.77;;;12.20;68.50;;;11.68;100.00;101562.94;4989550;28;20445;-64
2021/11/06 08:23:29;;;;;;;437.42;393.02;;;12.20;68.70;;;11.75;100.00;101568.91;4990126;28;20790;-65
2021/11/06 08:26:03;;;;;;;453.85;408.98;;;12.20;68.50;;;11.78;100.00;101576.47;4990022;28;20889;-66
2021/11/06 08:28:36;;;;;;;462.23;417.10;;;12.20;68.50;;;11.86;100.00;101582.13;4989614;28;20893;-64
2021/11/06 08:31:12;;;;;;;464.38;419.20;;;12.30;68.50;;;11.93;100.00;101588.03;4988299;28;20487;-68
2021/11/06 08:33:52;;;;;;;472.27;427.10;;;12.30;68.40;;;12.01;100.00;101579.31;4120995;28;10001835;-69
2021/11/06 08:36:20;;;;;;;469.25;424.15;;;12.30;68.00;;;12.10;100.00;101579.53;5013702;28;20416;-69
2021/11/06 08:39:06;;;;;;;489.90;444.45;;;12.50;68.00;;;12.21;100.00;101583.81;5010668;28;20494;-64
2021/11/06 08:42:23;;;;;;;497.55;451.85;;;12.60;67.70;;;12.31;100.00;101591.84;5010851;28;20416;-66
2021/11/06 08:44:55;;;;;;;492.25;446.63;;;12.60;67.40;;;12.34;100.00;101590.50;4988436;28;20961;-65
2021/11/06 08:47:23;;;;;;;495.55;449.88;;;12.70;67.10;;;12.42;100.00;101581.75;4992954;28;20418;-70
2021/11/06 08:49:54;;;;;;;504.00;458.40;;;12.70;67.10;;;12.47;100.00;101582.50;4995940;28;20424;-68
2021/11/06 08:52:34;;;;;;;510.20;464.40;;;12.70;66.70;;;12.53;100.00;101600.38;5010680;28;20420;-66
2021/11/06 08:55:02;;;;;;;518.75;472.85;;;12.80;66.60;;;12.56;100.00;101599.78;5012636;28;20443;-69
2021/11/06 08:57:30;;;;;;;515.63;469.67;;;12.90;66.60;;;12.82;100.00;101594.97;5012424;28;20416;-68
2021/11/06 09:00:06;;;;;;;521.23;475.43;;;13.20;66.50;;;12.92;100.00;101585.94;5011537;28;20417;-64
2021/11/06 09:02:35;;;;;;;537.10;490.83;;;13.20;65.30;;;12.97;100.00;101591.28;5011334;28;20416;-67
2021/11/06 09:05:04;;;;;;;543.10;496.88;;;13.30;66.10;;;13.19;100.00;101596.25;5012477;28;20474;-66
2021/11/06 09:07:33;;;;;;;538.20;492.00;;;13.50;65.20;;;13.25;100.00;101595.94;5010361;28;20432;-66
2021/11/06 09:10:02;;;;;;;549.05;502.77;;;13.60;66.40;;;13.27;100.00;101592.91;5011569;28;20863;-65
2021/11/06 09:12:30;;;;;;;557.03;510.53;;;13.50;65.00;;;13.21;100.00;101604.91;5010341;28;20419;-66
2021/11/06 09:14:59;;;;;;;554.60;508.10;;;13.50;64.60;;;13.16;100.00;101600.38;5011698;28;20443;-63
2021/11/06 09:17:31;;;;;;;564.13;517.42;;;13.50;65.10;;;13.19;100.00;101605.22;5012222;28;20831;-65
2021/11/06 09:19:59;;;;;;;562.63;516.10;;;13.50;64.70;;;13.21;100.00;101604.91;5011866;28;20415;-66
2021/11/06 09:22:27;;;;;;;559.50;512.90;;;13.40;64.60;;;13.14;100.00;101599.81;5011341;28;20420;-67
2021/11/06 09:24:55;;;;;;;562.70;516.10;;;13.40;65.30;;;13.34;100.00;101602.34;5011617;28;20970;-67
2021/11/06 09:27:24;;;;;;;563.55;516.85;;;13.60;64.70;;;13.30;100.00;101611.34;5011855;28;20425;-66
2021/11/06 09:29:52;;;;;;;560.70;514.20;;;13.50;65.00;;;13.27;100.00;101609.19;5011767;28;20425;-66
2021/11/06 09:32:23;;;;;;;568.60;521.80;;;13.50;65.50;;;13.21;100.00;101603.03;5011135;28;20420;-66
2021/11/06 09:34:51;;;;;;;575.17;528.47;;;13.40;64.50;;;13.31;100.00;101604.81;5011694;28;20416;-66
2021/11/06 09:37:19;;;;;;;581.70;534.90;;;13.50;65.20;;;13.38;100.00;101611.50;5010936;28;20504;-71
2021/11/06 09:39:47;;;;;;;571.47;524.67;;;13.60;64.30;;;13.40;100.00;101613.94;5011299;28;20424;-65
2021/11/06 09:42:16;;;;;;;566.42;519.92;;;13.70;65.20;;;13.75;100.00;101604.53;5010567;28;20471;-66
2021/11/06 09:44:44;;;;;;;579.75;533.05;;;14.10;64.40;;;13.98;100.00;101599.03;5011299;28;20915;-63
2021/11/06 09:47:13;;;;;;;582.97;536.17;;;14.40;63.10;;;14.06;100.00;101598.41;5011421;28;20420;-66
2021/11/06 09:49:44;;;;;;;604.63;557.42;;;14.40;62.50;;;14.11;100.00;101603.75;5011344;28;20490;-66
2021/11/06 09:52:13;;;;;;;604.63;557.33;;;14.40;62.80;;;14.12;100.00;101599.94;5010509;28;20527;-70
2021/11/06 09:54:43;;;;;;;607.97;560.67;;;14.50;63.20;;;14.16;98.60;101611.84;5011451;28;20415;-64